createdAt,value
2019-03-25T00:01:42.445Z,4.10
2019-03-25T00:04:13.179Z,4.10
2019-03-25T00:06:43.891Z,4.10
2019-03-25T00:09:14.636Z,4.00
2019-03-25T00:11:45.325Z,4.10
2019-03-25T00:14:16.100Z,4.10
2019-03-25T00:16:46.795Z,4.10
2019-03-25T00:19:17.497Z,4.10
2019-03-25T00:21:48.197Z,4.10
2019-03-25T00:24:18.936Z,4.00
2019-03-25T00:26:49.598Z,4.00
2019-03-25T00:29:20.331Z,4.10
2019-03-25T00:31:53.117Z,4.10
2019-03-25T00:34:23.802Z,4.20
2019-03-25T00:36:54.535Z,4.20
2019-03-25T00:39:25.227Z,4.20
2019-03-25T00:41:55.931Z,4.30
2019-03-25T00:44:26.636Z,4.30
2019-03-25T00:46:57.323Z,4.40
2019-03-25T00:49:28.035Z,4.50
2019-03-25T00:51:58.714Z,4.50
2019-03-25T00:54:30.379Z,4.50
2019-03-25T00:57:01.055Z,4.60
2019-03-25T00:59:31.747Z,4.60
2019-03-25T01:02:02.444Z,4.70
2019-03-25T01:04:33.216Z,4.80
2019-03-25T01:07:03.922Z,4.80
2019-03-25T01:09:34.623Z,4.70
2019-03-25T01:12:05.292Z,4.70
2019-03-25T01:14:36.028Z,4.70
2019-03-25T01:17:06.719Z,4.80
2019-03-25T01:19:37.427Z,5.00
2019-03-25T01:22:08.095Z,5.10
2019-03-25T01:24:38.887Z,5.20
2019-03-25T01:27:09.611Z,5.30
2019-03-25T01:29:40.304Z,5.30
2019-03-25T01:32:11.003Z,5.40
2019-03-25T01:34:41.710Z,5.40
2019-03-25T01:37:12.415Z,5.50
2019-03-25T01:39:43.142Z,5.50
2019-03-25T01:42:13.876Z,5.50
2019-03-25T01:44:44.575Z,5.60
2019-03-25T01:47:15.244Z,5.60
2019-03-25T01:49:45.928Z,5.60
2019-03-25T01:52:16.677Z,5.60
2019-03-25T01:54:47.386Z,5.60
2019-03-25T01:57:18.055Z,5.60
2019-03-25T01:59:48.745Z,5.70
2019-03-25T02:02:19.411Z,5.60
2019-03-25T02:04:50.123Z,5.70
2019-03-25T02:07:20.811Z,5.70
2019-03-25T02:09:51.515Z,5.70
2019-03-25T02:12:22.199Z,5.70
2019-03-25T02:14:52.891Z,5.70
2019-03-25T02:17:23.572Z,5.80
2019-03-25T02:19:54.275Z,5.80
2019-03-25T02:22:25.017Z,5.80
2019-03-25T02:24:55.807Z,5.90
2019-03-25T02:27:26.506Z,6.00
2019-03-25T02:29:57.295Z,6.00
2019-03-25T02:32:27.971Z,6.00
2019-03-25T02:34:58.668Z,6.00
2019-03-25T02:37:29.340Z,6.10
2019-03-25T02:40:00.027Z,6.10
2019-03-25T02:42:30.711Z,6.20
2019-03-25T02:45:01.389Z,6.20
2019-03-25T02:47:33.246Z,6.30
2019-03-25T02:50:03.960Z,6.30
2019-03-25T02:52:34.640Z,6.30
2019-03-25T02:55:05.657Z,6.30
2019-03-25T02:57:37.335Z,6.30
2019-03-25T03:00:08.935Z,6.30
2019-03-25T03:02:39.674Z,6.30
2019-03-25T03:05:10.347Z,6.30
2019-03-25T03:07:41.040Z,6.30
2019-03-25T03:10:11.738Z,6.30
2019-03-25T03:12:42.419Z,6.30
2019-03-25T03:15:13.156Z,6.30
2019-03-25T03:17:43.841Z,6.30
2019-03-25T03:20:14.545Z,6.30
2019-03-25T03:22:45.224Z,6.20
2019-03-25T03:25:15.935Z,6.20
2019-03-25T03:27:46.603Z,6.10
2019-03-25T03:30:17.333Z,6.10
2019-03-25T03:32:48.014Z,6.10
2019-03-25T03:35:18.700Z,6.10
2019-03-25T03:37:49.361Z,6.10
2019-03-25T03:40:20.074Z,6.10
2019-03-25T03:42:50.964Z,6.10
2019-03-25T03:45:21.661Z,6.20
2019-03-25T03:47:53.302Z,6.20
2019-03-25T03:50:28.369Z,6.20
2019-03-25T03:52:59.359Z,6.20
2019-03-25T03:55:31.385Z,6.20
2019-03-25T03:58:02.152Z,6.20
2019-03-25T04:00:34.291Z,6.10
2019-03-25T04:03:04.969Z,6.10
2019-03-25T04:05:36.635Z,5.90
2019-03-25T04:08:07.309Z,5.80
2019-03-25T04:10:37.996Z,5.60
2019-03-25T04:13:08.680Z,5.60
2019-03-25T04:15:39.405Z,5.50
2019-03-25T04:18:10.056Z,5.50
2019-03-25T04:20:40.768Z,5.40
2019-03-25T04:23:11.443Z,5.40
2019-03-25T04:25:42.149Z,5.30
2019-03-25T04:28:12.824Z,5.30
2019-03-25T04:30:43.549Z,5.30
2019-03-25T04:33:14.212Z,5.40
2019-03-25T04:35:44.880Z,5.40
2019-03-25T04:38:15.613Z,5.40
2019-03-25T04:40:46.305Z,5.30
2019-03-25T04:43:17.012Z,5.30
2019-03-25T04:45:47.696Z,5.20
2019-03-25T04:48:18.368Z,5.10
2019-03-25T04:50:49.030Z,5.00
2019-03-25T04:53:20.678Z,4.90
2019-03-25T04:55:51.354Z,4.90
2019-03-25T04:58:22.021Z,4.90
2019-03-25T05:00:52.709Z,4.90
2019-03-25T05:03:23.386Z,4.80
2019-03-25T05:05:54.060Z,4.80
2019-03-25T05:08:24.780Z,4.80
2019-03-25T05:10:55.491Z,4.70
2019-03-25T05:13:26.191Z,4.60
2019-03-25T05:15:56.881Z,4.60
2019-03-25T05:18:27.570Z,4.60
2019-03-25T05:21:00.998Z,4.50
2019-03-25T05:23:31.727Z,4.40
2019-03-25T05:26:02.439Z,4.40
2019-03-25T05:28:35.981Z,4.40
2019-03-25T05:31:06.650Z,4.40
2019-03-25T05:33:37.366Z,4.40
2019-03-25T05:36:08.067Z,4.40
2019-03-25T05:38:38.760Z,4.50
2019-03-25T05:41:09.461Z,4.60
2019-03-25T05:43:41.359Z,4.60
2019-03-25T05:46:12.044Z,4.70
2019-03-25T05:48:42.744Z,4.70
2019-03-25T05:51:13.412Z,4.70
2019-03-25T05:53:44.120Z,4.70
2019-03-25T05:56:14.789Z,4.70
2019-03-25T05:58:45.496Z,4.70
2019-03-25T06:01:16.385Z,4.70
2019-03-25T06:03:47.081Z,4.80
2019-03-25T06:06:17.763Z,5.00
2019-03-25T06:08:48.512Z,5.40
2019-03-25T06:11:19.221Z,5.80
2019-03-25T06:13:50.883Z,6.30
2019-03-25T06:16:21.547Z,6.70
2019-03-25T06:18:52.242Z,7.20
2019-03-25T06:21:22.927Z,7.30
2019-03-25T06:23:53.700Z,7.30
2019-03-25T06:26:24.394Z,6.70
2019-03-25T06:28:55.072Z,6.30
2019-03-25T06:31:25.742Z,5.90
2019-03-25T06:33:56.514Z,5.90
2019-03-25T06:36:27.207Z,6.70
2019-03-25T06:38:57.904Z,7.60
2019-03-25T06:41:28.580Z,8.60
2019-03-25T06:43:59.284Z,8.80
2019-03-25T06:46:30.924Z,8.50
2019-03-25T06:49:01.627Z,8.00
2019-03-25T06:51:32.307Z,8.00
2019-03-25T06:54:03.006Z,8.20
2019-03-25T06:56:33.711Z,8.10
2019-03-25T06:59:04.439Z,8.00
2019-03-25T07:01:35.116Z,8.40
2019-03-25T07:04:05.892Z,8.50
2019-03-25T07:06:36.615Z,8.20
2019-03-25T07:09:08.208Z,8.20
2019-03-25T07:11:40.227Z,7.60
2019-03-25T07:14:10.964Z,7.30
2019-03-25T07:16:41.665Z,7.00
2019-03-25T07:19:12.329Z,7.00
2019-03-25T07:21:43.027Z,6.90
2019-03-25T07:24:13.721Z,7.00
2019-03-25T07:26:44.407Z,7.00
2019-03-25T07:29:15.076Z,7.10
2019-03-25T07:31:45.764Z,7.00
2019-03-25T07:34:16.463Z,6.90
2019-03-25T07:36:47.150Z,6.90
2019-03-25T07:39:17.815Z,6.80
2019-03-25T07:41:48.507Z,6.80
2019-03-25T07:44:19.200Z,7.10
2019-03-25T07:46:49.889Z,7.20
2019-03-25T07:49:20.613Z,7.40
2019-03-25T07:51:58.266Z,8.00
2019-03-25T07:54:28.934Z,8.50
2019-03-25T07:56:59.689Z,8.90
2019-03-25T07:59:30.364Z,9.60
2019-03-25T08:02:01.083Z,10.20
2019-03-25T08:04:31.739Z,11.50
2019-03-25T08:07:02.461Z,12.20
2019-03-25T08:09:33.132Z,12.90
2019-03-25T08:12:03.875Z,12.90
2019-03-25T08:14:34.710Z,13.00
2019-03-25T08:17:05.491Z,12.10
2019-03-25T08:19:36.170Z,11.90
2019-03-25T08:22:06.861Z,12.20
2019-03-25T08:24:37.539Z,12.70
2019-03-25T08:27:08.248Z,12.20
2019-03-25T08:29:38.928Z,11.80
2019-03-25T08:32:09.681Z,11.30
2019-03-25T08:34:40.373Z,10.60
2019-03-25T08:37:11.056Z,10.90
2019-03-25T08:39:41.734Z,11.00
2019-03-25T08:42:12.599Z,11.20
2019-03-25T08:44:43.311Z,11.60
2019-03-25T08:47:14.120Z,11.60
2019-03-25T08:49:44.812Z,11.20
2019-03-25T08:52:15.577Z,10.50
2019-03-25T08:54:46.256Z,9.90
2019-03-25T08:57:16.953Z,9.60
2019-03-25T08:59:47.676Z,9.30
2019-03-25T09:02:18.392Z,9.40
2019-03-25T09:04:49.116Z,10.40
2019-03-25T09:07:19.833Z,11.30
2019-03-25T09:09:50.496Z,11.50
2019-03-25T09:12:21.193Z,10.90
2019-03-25T09:14:51.860Z,10.90
2019-03-25T09:17:22.587Z,11.50
2019-03-25T09:19:53.260Z,11.40
2019-03-25T09:22:23.971Z,11.40
2019-03-25T09:24:54.637Z,10.80
2019-03-25T09:27:25.337Z,10.20
2019-03-25T09:29:56.078Z,9.80
2019-03-25T09:32:26.827Z,10.10
2019-03-25T09:34:57.495Z,10.30
2019-03-25T09:37:28.195Z,11.00
2019-03-25T09:39:58.911Z,11.30
2019-03-25T09:42:29.598Z,11.70
2019-03-25T09:45:00.402Z,11.30
2019-03-25T09:47:31.103Z,11.60
2019-03-25T09:50:01.792Z,10.70
2019-03-25T09:52:38.441Z,9.50
2019-03-25T09:55:05.564Z,9.70
2019-03-25T09:57:36.251Z,10.60
2019-03-25T10:00:09.538Z,11.30
2019-03-25T10:02:40.251Z,12.40
2019-03-25T10:05:12.043Z,12.70
2019-03-25T10:07:43.779Z,11.60
2019-03-25T10:10:14.586Z,10.90
2019-03-25T10:12:45.406Z,10.10
2019-03-25T10:15:17.572Z,9.60
2019-03-25T10:17:51.240Z,9.20
2019-03-25T10:20:21.906Z,9.00
2019-03-25T10:22:52.599Z,8.40
2019-03-25T10:25:23.287Z,8.00
2019-03-25T10:27:53.989Z,7.60
2019-03-25T10:30:24.916Z,7.50
2019-03-25T10:32:55.624Z,8.00
2019-03-25T10:35:26.295Z,10.10
2019-03-25T10:37:57.008Z,12.50
2019-03-25T10:40:27.688Z,14.40
2019-03-25T10:42:58.419Z,15.60
2019-03-25T10:45:29.106Z,16.70
2019-03-25T10:47:59.783Z,16.00
2019-03-25T10:50:30.468Z,13.40
2019-03-25T10:53:01.175Z,12.40
2019-03-25T10:55:31.868Z,13.00
2019-03-25T10:58:02.588Z,13.50
2019-03-25T11:00:33.272Z,14.10
2019-03-25T11:03:04.065Z,15.50
2019-03-25T11:05:34.773Z,16.10
2019-03-25T11:08:05.560Z,17.00
2019-03-25T11:10:36.751Z,15.70
2019-03-25T11:13:07.439Z,15.20
2019-03-25T11:15:38.107Z,14.10
2019-03-25T11:18:08.808Z,12.70
2019-03-25T11:20:39.500Z,11.60
2019-03-25T11:23:10.216Z,10.60
2019-03-25T11:25:40.912Z,9.70
2019-03-25T11:28:12.386Z,9.50
2019-03-25T11:30:59.515Z,9.50
2019-03-25T11:33:30.444Z,11.30
2019-03-25T11:36:02.841Z,13.00
2019-03-25T11:38:33.707Z,12.00
2019-03-25T11:41:04.673Z,10.40
2019-03-25T11:43:35.356Z,9.60
2019-03-25T11:46:06.059Z,8.90
2019-03-25T11:48:36.753Z,9.50
2019-03-25T11:51:07.427Z,11.60
2019-03-25T11:53:38.123Z,13.20
2019-03-25T11:56:08.799Z,14.40
2019-03-25T11:58:39.505Z,14.80
2019-03-25T12:01:10.183Z,14.60
2019-03-25T12:03:41.695Z,15.60
2019-03-25T12:06:12.387Z,15.60
2019-03-25T12:08:43.096Z,15.80
2019-03-25T12:11:13.773Z,16.30
2019-03-25T12:13:44.471Z,16.60
2019-03-25T12:16:15.156Z,15.60
2019-03-25T12:18:45.863Z,14.70
2019-03-25T12:21:16.539Z,12.80
2019-03-25T12:23:47.245Z,10.90
2019-03-25T12:26:18.876Z,9.30
2019-03-25T12:28:49.602Z,8.40
2019-03-25T12:31:20.288Z,8.00
2019-03-25T12:33:51.051Z,7.80
2019-03-25T12:36:21.759Z,7.80
2019-03-25T12:38:52.468Z,7.90
2019-03-25T12:41:23.141Z,8.10
2019-03-25T12:43:53.843Z,8.20
2019-03-25T12:46:24.520Z,8.20
2019-03-25T12:48:55.260Z,9.10
2019-03-25T12:51:25.932Z,10.70
2019-03-25T12:53:56.643Z,11.60
2019-03-25T12:56:27.296Z,12.70
2019-03-25T12:58:58.011Z,12.50
2019-03-25T13:01:28.687Z,12.20
2019-03-25T13:04:00.352Z,12.20
2019-03-25T13:06:31.035Z,13.00
2019-03-25T13:09:01.740Z,13.20
2019-03-25T13:11:32.867Z,12.90
2019-03-25T13:14:03.575Z,11.80
2019-03-25T13:16:34.323Z,11.20
2019-03-25T13:19:05.057Z,10.80
2019-03-25T13:21:35.737Z,10.80
2019-03-25T13:24:06.833Z,11.60
2019-03-25T13:26:37.527Z,11.90
2019-03-25T13:29:08.241Z,11.90
2019-03-25T13:31:38.925Z,11.70
2019-03-25T13:34:10.609Z,11.40
2019-03-25T13:36:42.252Z,11.10
2019-03-25T13:39:12.960Z,11.30
2019-03-25T13:41:43.644Z,11.60
2019-03-25T13:44:14.356Z,11.80
2019-03-25T13:46:45.026Z,11.70
2019-03-25T13:49:15.733Z,11.70
2019-03-25T13:51:46.440Z,11.70
2019-03-25T13:54:17.132Z,11.00
2019-03-25T13:56:47.816Z,10.60
2019-03-25T13:59:18.500Z,10.50
2019-03-25T14:01:49.176Z,10.80
2019-03-25T14:04:19.916Z,11.30
2019-03-25T14:06:50.644Z,11.30
2019-03-25T14:09:21.352Z,11.40
2019-03-25T14:11:52.041Z,11.40
2019-03-25T14:14:22.778Z,11.30
2019-03-25T14:16:53.443Z,11.00
2019-03-25T14:19:24.156Z,10.40
2019-03-25T14:21:54.844Z,9.40
2019-03-25T14:24:25.565Z,9.10
2019-03-25T14:26:56.306Z,9.20
2019-03-25T14:29:27.095Z,9.70
2019-03-25T14:31:57.770Z,10.10
2019-03-25T14:34:28.460Z,10.40
2019-03-25T14:36:59.142Z,10.60
2019-03-25T14:39:29.839Z,11.00
2019-03-25T14:42:00.503Z,11.10
2019-03-25T14:44:31.219Z,11.20
2019-03-25T14:47:02.895Z,11.00
2019-03-25T14:49:33.635Z,10.80
2019-03-25T14:52:04.355Z,10.50
2019-03-25T14:54:35.065Z,10.70
2019-03-25T14:57:05.728Z,10.80
2019-03-25T14:59:36.429Z,10.40
2019-03-25T15:02:07.153Z,10.10
2019-03-25T15:04:37.864Z,9.50
2019-03-25T15:07:11.626Z,9.30
2019-03-25T15:09:42.335Z,9.40
2019-03-25T15:12:13.028Z,9.50
2019-03-25T15:14:43.728Z,9.50
2019-03-25T15:17:14.478Z,9.60
2019-03-25T15:19:45.242Z,9.80
2019-03-25T15:22:15.935Z,9.90
2019-03-25T15:24:46.643Z,10.10
2019-03-25T15:27:17.311Z,10.20
2019-03-25T15:29:48.000Z,10.00
2019-03-25T15:32:18.815Z,10.00
2019-03-25T15:34:50.582Z,9.90
2019-03-25T15:37:21.265Z,9.70
2019-03-25T15:39:51.971Z,9.40
2019-03-25T15:42:22.646Z,9.30
2019-03-25T15:44:53.339Z,9.10
2019-03-25T15:47:24.081Z,9.00
2019-03-25T15:49:54.768Z,9.00
2019-03-25T15:52:25.454Z,9.10
2019-03-25T15:54:56.156Z,8.80
2019-03-25T15:57:26.843Z,8.60
2019-03-25T15:59:57.620Z,8.60
2019-03-25T16:02:28.303Z,8.60
2019-03-25T16:04:59.013Z,8.60
2019-03-25T16:07:29.775Z,8.70
2019-03-25T16:10:00.459Z,8.60
2019-03-25T16:12:31.153Z,8.60
2019-03-25T16:15:01.912Z,8.70
2019-03-25T16:17:32.668Z,8.80
2019-03-25T16:20:03.424Z,8.90
2019-03-25T16:22:34.087Z,9.00
2019-03-25T16:25:04.896Z,8.90
2019-03-25T16:27:35.609Z,8.90
2019-03-25T16:30:07.209Z,8.90
2019-03-25T16:32:37.883Z,9.10
2019-03-25T16:35:08.704Z,9.10
2019-03-25T16:37:39.403Z,9.20
2019-03-25T16:40:10.147Z,9.20
2019-03-25T16:42:40.856Z,9.30
2019-03-25T16:45:12.079Z,9.30
2019-03-25T16:47:42.760Z,9.20
2019-03-25T16:50:13.436Z,9.20
2019-03-25T16:52:45.153Z,9.20
2019-03-25T16:55:15.835Z,9.10
2019-03-25T16:57:46.551Z,9.10
2019-03-25T17:00:26.789Z,9.10
2019-03-25T17:02:49.663Z,9.10
2019-03-25T17:05:20.371Z,9.00
2019-03-25T17:07:51.097Z,8.90
2019-03-25T17:10:21.783Z,8.90
2019-03-25T17:12:52.506Z,8.90
2019-03-25T17:15:23.183Z,8.80
2019-03-25T17:17:53.887Z,8.80
2019-03-25T17:20:26.579Z,8.80
2019-03-25T17:22:57.016Z,8.70
2019-03-25T17:25:27.744Z,8.70
2019-03-25T17:27:58.460Z,8.70
2019-03-25T17:30:29.462Z,8.70
2019-03-25T17:33:00.198Z,8.60
2019-03-25T17:35:30.910Z,8.50
2019-03-25T17:38:01.592Z,8.50
2019-03-25T17:40:32.387Z,8.40
2019-03-25T17:43:03.262Z,8.30
2019-03-25T17:45:33.936Z,8.20
2019-03-25T17:48:04.753Z,8.10
2019-03-25T17:50:35.437Z,7.90
2019-03-25T17:53:07.251Z,7.90
2019-03-25T17:55:38.071Z,7.90
2019-03-25T17:58:08.864Z,7.90
2019-03-25T18:01:32.240Z,7.90
2019-03-25T18:04:00.123Z,7.90
2019-03-25T18:06:31.830Z,8.00
2019-03-25T18:09:02.596Z,8.00
2019-03-25T18:11:34.923Z,8.00
2019-03-25T18:14:05.835Z,8.00
2019-03-25T18:16:36.577Z,8.00
2019-03-25T18:19:07.346Z,8.00
2019-03-25T18:21:38.070Z,7.90
2019-03-25T18:24:08.852Z,7.90
2019-03-25T18:26:39.639Z,7.90
2019-03-25T18:29:10.433Z,7.90
2019-03-25T18:31:43.645Z,7.90
2019-03-25T18:34:13.625Z,7.90
2019-03-25T18:36:44.376Z,7.90
2019-03-25T18:39:15.144Z,7.80
2019-03-25T18:41:45.964Z,7.70
2019-03-25T18:44:17.721Z,7.70
2019-03-25T18:46:48.440Z,7.80
2019-03-25T18:49:19.223Z,7.70
2019-03-25T18:51:50.444Z,7.70
2019-03-25T18:54:21.171Z,7.70
2019-03-25T18:56:51.873Z,7.80
2019-03-25T18:59:22.621Z,7.80
2019-03-25T19:01:54.920Z,7.80
2019-03-25T19:04:27.273Z,7.80
2019-03-25T19:06:58.270Z,7.80
2019-03-25T19:09:29.339Z,7.80
2019-03-25T19:12:00.479Z,7.70
2019-03-25T19:14:31.350Z,7.70
2019-03-25T19:17:02.099Z,7.70
2019-03-25T19:19:32.945Z,7.60
2019-03-25T19:22:05.401Z,7.50
2019-03-25T19:24:36.083Z,7.50
2019-03-25T19:27:06.859Z,7.40
2019-03-25T19:29:37.587Z,7.40
2019-03-25T19:32:08.329Z,7.40
2019-03-25T19:34:39.051Z,7.40
2019-03-25T19:37:09.804Z,7.40
2019-03-25T19:39:40.628Z,7.30
2019-03-25T19:42:11.390Z,7.30
2019-03-25T19:44:42.184Z,7.30
2019-03-25T19:47:12.962Z,7.30
2019-03-25T19:49:43.733Z,7.20
2019-03-25T19:52:14.454Z,7.20
2019-03-25T19:54:45.954Z,7.20
2019-03-25T19:57:16.774Z,7.20
2019-03-25T19:59:47.660Z,7.10
2019-03-25T20:02:19.574Z,7.20
2019-03-25T20:04:50.495Z,7.10
2019-03-25T20:07:21.294Z,7.10
2019-03-25T20:09:52.468Z,7.00
2019-03-25T20:12:23.451Z,7.00
2019-03-25T20:14:54.204Z,6.90
2019-03-25T20:17:24.915Z,6.90
2019-03-25T20:19:55.681Z,6.80
2019-03-25T20:22:26.385Z,6.80
2019-03-25T20:24:57.674Z,6.80
2019-03-25T20:27:28.390Z,6.70
2019-03-25T20:29:59.191Z,6.70
2019-03-25T20:32:32.334Z,6.80
2019-03-25T20:35:03.341Z,6.80
2019-03-25T20:37:35.149Z,6.80
2019-03-25T20:40:05.945Z,6.90
2019-03-25T20:42:36.716Z,6.90
2019-03-25T20:45:07.769Z,6.90
2019-03-25T20:47:38.555Z,7.00
2019-03-25T20:50:09.445Z,6.90
2019-03-25T20:52:40.243Z,7.00
2019-03-25T20:55:11.005Z,7.00
2019-03-25T20:57:41.734Z,6.90
2019-03-25T21:00:13.150Z,6.90
2019-03-25T21:02:45.307Z,6.90
2019-03-25T21:05:16.430Z,6.90
2019-03-25T21:07:47.211Z,6.90
2019-03-25T21:10:18.057Z,6.90
2019-03-25T21:12:48.779Z,6.90
2019-03-25T21:15:19.551Z,6.90
2019-03-25T21:17:50.440Z,6.90
2019-03-25T21:20:21.256Z,6.90
2019-03-25T21:22:51.954Z,6.90
2019-03-25T21:25:22.706Z,6.90
2019-03-25T21:27:53.412Z,6.90
2019-03-25T21:30:24.235Z,6.90
2019-03-25T21:32:58.436Z,6.90
2019-03-25T21:35:27.501Z,6.90
2019-03-25T21:37:58.344Z,6.90
2019-03-25T21:40:29.167Z,6.90
2019-03-25T21:42:59.894Z,6.90
2019-03-25T21:45:30.627Z,6.90
2019-03-25T21:48:01.399Z,6.90
2019-03-25T21:50:32.340Z,6.90
2019-03-25T21:53:02.998Z,6.90
2019-03-25T21:55:33.823Z,6.80
2019-03-25T21:58:04.635Z,6.80
2019-03-25T22:00:35.375Z,6.80
2019-03-25T22:03:12.221Z,6.80
2019-03-25T22:05:38.637Z,6.80
2019-03-25T22:08:09.305Z,6.80
2019-03-25T22:10:42.846Z,6.80
2019-03-25T22:13:12.385Z,6.80
2019-03-25T22:15:43.071Z,6.70
2019-03-25T22:18:13.777Z,6.80
2019-03-25T22:20:44.489Z,6.70
2019-03-25T22:23:15.159Z,6.70
2019-03-25T22:25:45.847Z,6.80
2019-03-25T22:28:16.519Z,6.70
2019-03-25T22:30:47.252Z,6.70
2019-03-25T22:33:25.863Z,6.70
2019-03-25T22:35:50.413Z,6.70
2019-03-25T22:38:21.093Z,6.80
2019-03-25T22:40:51.810Z,6.70
2019-03-25T22:43:22.478Z,6.70
2019-03-25T22:45:53.216Z,6.80
2019-03-25T22:48:23.922Z,6.80
2019-03-25T22:50:54.639Z,6.80
2019-03-25T22:53:25.319Z,6.70
2019-03-25T22:55:56.012Z,6.70
2019-03-25T22:58:26.691Z,6.80
2019-03-25T23:00:57.903Z,6.80
2019-03-25T23:03:38.516Z,6.80
2019-03-25T23:06:01.064Z,6.80
2019-03-25T23:08:31.739Z,6.70
2019-03-25T23:11:02.440Z,6.70
2019-03-25T23:13:33.135Z,6.70
2019-03-25T23:16:03.948Z,6.70
2019-03-25T23:18:34.640Z,6.70
2019-03-25T23:21:05.440Z,6.70
2019-03-25T23:23:36.110Z,6.70
2019-03-25T23:26:06.843Z,6.70
2019-03-25T23:28:37.505Z,6.70
2019-03-25T23:31:08.227Z,6.70
2019-03-25T23:33:51.459Z,6.70
2019-03-25T23:36:11.340Z,6.70
2019-03-25T23:38:42.059Z,6.60
2019-03-25T23:41:12.766Z,6.60
2019-03-25T23:43:43.462Z,6.60
2019-03-25T23:46:14.190Z,6.60
2019-03-25T23:48:44.879Z,6.50
2019-03-25T23:51:15.590Z,6.50
2019-03-25T23:53:46.266Z,6.60
2019-03-25T23:56:18.794Z,6.50
2019-03-25T23:58:49.388Z,6.60
